createdAt,value
2022-11-15T00:01:14.978Z,12.00
2022-11-15T00:03:42.593Z,12.10
2022-11-15T00:06:10.632Z,12.30
2022-11-15T00:08:38.246Z,12.10
2022-11-15T00:11:06.008Z,13.20
2022-11-15T00:13:33.857Z,13.50
2022-11-15T00:16:02.245Z,13.60
2022-11-15T00:18:31.257Z,14.10
2022-11-15T00:21:08.552Z,12.30
2022-11-15T00:23:36.767Z,11.10
2022-11-15T00:26:04.700Z,12.60
2022-11-15T00:28:32.621Z,13.60
2022-11-15T00:31:05.055Z,12.20
2022-11-15T00:33:33.386Z,11.40
2022-11-15T00:36:03.474Z,11.10
2022-11-15T00:38:35.157Z,12.80
2022-11-15T00:43:37.870Z,11.20
2022-11-15T00:46:05.890Z,10.90
2022-11-15T00:48:33.478Z,11.50
2022-11-15T00:51:01.294Z,10.90
2022-11-15T00:53:29.127Z,12.10
2022-11-15T00:55:57.006Z,11.90
2022-11-15T00:58:24.599Z,12.50
2022-11-15T01:00:52.291Z,10.30
2022-11-15T01:03:19.891Z,12.30
2022-11-15T01:05:47.454Z,12.00
2022-11-15T01:08:16.788Z,10.20
2022-11-15T01:10:44.374Z,9.80
2022-11-15T01:13:11.955Z,11.30
2022-11-15T01:15:42.678Z,10.60
2022-11-15T01:18:10.435Z,10.30
2022-11-15T01:20:42.204Z,10.30
2022-11-15T01:23:10.167Z,9.20
2022-11-15T01:25:38.763Z,11.90
2022-11-15T01:28:06.342Z,11.00
2022-11-15T01:30:33.922Z,11.60
2022-11-15T01:33:01.491Z,9.70
2022-11-15T01:35:29.070Z,10.50
2022-11-15T01:37:56.984Z,9.90
2022-11-15T01:40:24.690Z,10.20
2022-11-15T01:42:52.257Z,11.70
2022-11-15T01:45:19.812Z,11.30
2022-11-15T01:47:53.196Z,11.60
2022-11-15T01:50:25.887Z,11.80
2022-11-15T01:52:53.589Z,10.50
2022-11-15T01:55:25.259Z,11.10
2022-11-15T02:00:24.009Z,10.90
2022-11-15T02:02:51.754Z,11.30
2022-11-15T02:05:19.445Z,12.60
2022-11-15T02:07:48.230Z,12.20
2022-11-15T02:10:21.348Z,11.90
2022-11-15T02:12:50.392Z,12.80
2022-11-15T02:15:18.632Z,12.70
2022-11-15T02:18:15.465Z,12.10
2022-11-15T02:21:15.543Z,11.40
2022-11-15T02:24:02.035Z,10.40
2022-11-15T02:26:57.548Z,11.50
2022-11-15T02:29:46.612Z,10.20
2022-11-15T02:32:23.965Z,11.90
2022-11-15T02:35:03.067Z,11.50
2022-11-15T02:37:56.858Z,10.30
2022-11-15T02:40:32.605Z,10.00
2022-11-15T02:43:25.083Z,11.30
2022-11-15T02:45:59.602Z,9.00
2022-11-15T02:48:27.381Z,10.80
2022-11-15T02:50:55.134Z,10.60
2022-11-15T02:53:26.756Z,10.00
2022-11-15T02:59:00.989Z,9.30
2022-11-15T03:01:50.337Z,10.20
2022-11-15T03:04:20.695Z,10.90
2022-11-15T03:06:54.606Z,11.10
2022-11-15T03:09:43.643Z,9.90
2022-11-15T03:12:30.187Z,9.00
2022-11-15T03:15:02.720Z,7.50
2022-11-15T03:17:42.033Z,7.60
2022-11-15T03:20:11.389Z,9.20
2022-11-15T03:22:43.888Z,8.10
2022-11-15T03:25:19.034Z,9.50
2022-11-15T03:27:51.546Z,9.00
2022-11-15T03:30:20.061Z,10.00
2022-11-15T03:32:56.638Z,9.30
2022-11-15T03:35:45.597Z,9.00
2022-11-15T03:38:35.503Z,9.70
2022-11-15T03:41:09.993Z,9.30
2022-11-15T03:43:47.930Z,9.00
2022-11-15T03:46:20.819Z,10.30
2022-11-15T03:48:52.771Z,9.80
2022-11-15T03:51:20.789Z,9.90
2022-11-15T03:53:48.472Z,11.10
2022-11-15T03:56:16.093Z,10.40
2022-11-15T03:58:43.683Z,10.80
2022-11-15T04:01:11.300Z,9.20
2022-11-15T04:03:38.945Z,8.90
2022-11-15T04:06:06.987Z,9.00
2022-11-15T04:08:34.547Z,10.10
2022-11-15T04:11:02.452Z,9.30
2022-11-15T04:13:30.430Z,10.40
2022-11-15T04:15:58.234Z,11.00
2022-11-15T04:18:25.812Z,10.00
2022-11-15T04:20:53.353Z,10.70
2022-11-15T04:23:23.450Z,10.90
2022-11-15T04:25:54.827Z,10.70
2022-11-15T04:28:23.367Z,9.90
2022-11-15T04:30:50.911Z,10.20
2022-11-15T04:33:18.758Z,11.00
2022-11-15T04:35:46.365Z,10.90
2022-11-15T04:38:14.180Z,10.40
2022-11-15T04:40:41.766Z,10.20
2022-11-15T04:43:09.343Z,10.50
2022-11-15T04:45:37.018Z,10.30
2022-11-15T04:48:04.971Z,11.00
2022-11-15T04:50:32.558Z,10.00
2022-11-15T04:53:00.130Z,9.60
2022-11-15T04:55:27.713Z,11.50
2022-11-15T04:58:02.915Z,9.60
2022-11-15T05:00:30.690Z,10.00
2022-11-15T05:02:58.588Z,9.50
2022-11-15T05:05:26.167Z,10.00
2022-11-15T05:07:53.857Z,9.70
2022-11-15T05:10:21.545Z,11.30
2022-11-15T05:12:49.240Z,10.70
2022-11-15T05:15:16.967Z,12.50
2022-11-15T05:17:44.512Z,12.90
2022-11-15T05:20:14.505Z,14.70
2022-11-15T05:22:42.354Z,12.50
2022-11-15T05:25:09.957Z,12.20
2022-11-15T05:27:37.583Z,12.40
2022-11-15T05:30:05.616Z,12.10
2022-11-15T05:32:33.416Z,13.10
2022-11-15T05:35:01.030Z,11.90
2022-11-15T05:37:29.939Z,11.20
2022-11-15T05:39:58.665Z,10.80
2022-11-15T05:42:28.613Z,12.40
2022-11-15T05:44:58.210Z,12.90
2022-11-15T05:47:30.229Z,12.50
2022-11-15T05:49:58.713Z,11.30
2022-11-15T05:52:31.669Z,12.50
2022-11-15T05:55:00.111Z,11.80
2022-11-15T05:57:27.683Z,12.10
2022-11-15T05:59:59.102Z,11.60
2022-11-15T06:02:26.764Z,13.90
2022-11-15T06:04:54.416Z,15.10
2022-11-15T06:07:22.283Z,12.50
2022-11-15T06:09:49.957Z,11.80
2022-11-15T06:12:17.553Z,12.40
2022-11-15T06:14:45.254Z,15.80
2022-11-15T06:17:12.875Z,14.00
2022-11-15T06:19:40.627Z,13.60
2022-11-15T06:22:08.376Z,12.40
2022-11-15T06:24:36.132Z,12.60
2022-11-15T06:27:03.849Z,10.10
2022-11-15T06:29:31.537Z,12.40
2022-11-15T06:31:59.145Z,11.50
2022-11-15T06:34:26.773Z,11.00
2022-11-15T06:36:54.405Z,13.60
2022-11-15T06:39:21.994Z,12.80
2022-11-15T06:41:49.584Z,11.40
2022-11-15T06:44:17.156Z,12.70
2022-11-15T06:46:44.725Z,11.90
2022-11-15T06:49:12.296Z,12.40
2022-11-15T06:51:39.872Z,11.70
2022-11-15T06:54:07.446Z,12.40
2022-11-15T06:56:35.424Z,13.60
2022-11-15T06:59:03.063Z,12.20
2022-11-15T07:01:30.784Z,11.30
2022-11-15T07:03:58.572Z,13.20
2022-11-15T07:06:26.205Z,10.90
2022-11-15T07:08:53.765Z,13.40
2022-11-15T07:11:21.360Z,12.00
2022-11-15T07:13:48.896Z,12.80
2022-11-15T07:16:16.545Z,11.40
2022-11-15T07:18:44.130Z,12.40
2022-11-15T07:21:11.942Z,13.20
2022-11-15T07:23:40.925Z,12.50
2022-11-15T07:26:09.376Z,12.30
2022-11-15T07:28:37.467Z,13.90
2022-11-15T07:31:07.399Z,13.00
2022-11-15T07:33:36.146Z,14.50
2022-11-15T07:36:06.635Z,13.60
2022-11-15T07:38:40.960Z,14.40
2022-11-15T07:41:10.855Z,17.30
2022-11-15T07:43:38.460Z,14.70
2022-11-15T07:46:08.147Z,20.50
2022-11-15T07:48:43.874Z,15.90
2022-11-15T07:51:16.437Z,14.10
2022-11-15T07:53:44.889Z,15.30
2022-11-15T07:56:13.421Z,15.30
2022-11-15T07:58:41.008Z,16.10
2022-11-15T08:01:10.730Z,15.00
2022-11-15T08:03:38.482Z,14.70
2022-11-15T08:06:06.311Z,14.40
2022-11-15T08:08:33.886Z,14.80
2022-11-15T08:11:01.970Z,14.50
2022-11-15T08:13:29.806Z,15.40
2022-11-15T08:16:02.147Z,14.30
2022-11-15T08:18:29.803Z,14.80
2022-11-15T08:21:03.785Z,15.60
2022-11-15T08:23:31.802Z,16.10
2022-11-15T08:26:01.551Z,15.30
2022-11-15T08:28:29.534Z,14.00
2022-11-15T08:30:57.239Z,15.00
2022-11-15T08:33:25.102Z,14.10
2022-11-15T08:35:52.692Z,15.70
2022-11-15T08:38:20.364Z,15.40
2022-11-15T08:40:48.151Z,16.00
2022-11-15T08:43:15.753Z,14.80
2022-11-15T08:45:43.368Z,16.20
2022-11-15T08:48:11.025Z,16.50
2022-11-15T08:50:38.572Z,15.80
2022-11-15T08:53:10.885Z,16.10
2022-11-15T08:55:39.813Z,15.60
2022-11-15T08:58:07.697Z,14.10
2022-11-15T09:00:35.359Z,15.70
2022-11-15T09:03:07.060Z,15.60
2022-11-15T09:08:25.022Z,15.10
2022-11-15T09:10:52.885Z,15.80
2022-11-15T09:13:20.479Z,16.20
2022-11-15T09:15:48.125Z,16.10
2022-11-15T09:18:15.855Z,16.40
2022-11-15T09:20:43.420Z,15.60
2022-11-15T09:23:11.001Z,16.00
2022-11-15T09:25:38.573Z,15.80
2022-11-15T09:28:09.708Z,14.90
2022-11-15T09:30:37.273Z,14.80
2022-11-15T09:33:09.919Z,15.60
2022-11-15T09:35:37.588Z,15.50
2022-11-15T09:38:05.846Z,16.50
2022-11-15T09:40:37.541Z,14.30
2022-11-15T09:43:30.255Z,15.30
2022-11-15T09:46:53.678Z,16.60
2022-11-15T09:49:22.241Z,15.00
2022-11-15T09:51:52.250Z,16.50
2022-11-15T09:54:52.918Z,15.70
2022-11-15T09:58:01.713Z,15.90
2022-11-15T10:00:52.713Z,15.20
2022-11-15T10:03:39.436Z,15.20
2022-11-15T10:06:10.833Z,15.00
2022-11-15T10:08:44.341Z,14.70
2022-11-15T10:14:19.499Z,14.10
2022-11-15T10:16:53.130Z,15.00
2022-11-15T10:19:20.664Z,14.40
2022-11-15T10:22:00.084Z,15.10
2022-11-15T10:24:31.753Z,20.10
2022-11-15T10:29:27.444Z,14.60
2022-11-15T10:31:55.193Z,13.90
2022-11-15T10:34:24.872Z,16.80
2022-11-15T10:36:57.657Z,15.60
2022-11-15T10:39:26.220Z,15.70
2022-11-15T10:41:54.677Z,15.40
2022-11-15T10:44:30.190Z,14.80
2022-11-15T10:46:57.730Z,15.90
2022-11-15T10:49:28.090Z,16.40
2022-11-15T10:52:16.090Z,15.40
2022-11-15T10:54:48.351Z,14.20
2022-11-15T10:57:21.353Z,13.20
2022-11-15T11:00:05.698Z,13.70
2022-11-15T11:02:46.571Z,15.40
2022-11-15T11:05:29.294Z,15.10
2022-11-15T11:08:03.284Z,14.50
2022-11-15T11:13:30.766Z,18.20
2022-11-15T11:16:01.067Z,18.30
2022-11-15T11:18:39.544Z,16.00
2022-11-15T11:21:14.017Z,18.10
2022-11-15T11:24:04.405Z,17.50
2022-11-15T11:27:07.491Z,16.20
2022-11-15T11:29:50.116Z,18.00
2022-11-15T11:32:55.856Z,19.60
2022-11-15T11:35:46.467Z,17.10
2022-11-15T11:38:29.366Z,13.30
2022-11-15T11:41:35.567Z,16.60
2022-11-15T11:44:18.440Z,17.40
2022-11-15T11:46:56.222Z,17.70
2022-11-15T11:49:51.520Z,19.00
2022-11-15T11:52:59.480Z,20.20
2022-11-15T11:55:40.316Z,19.00
2022-11-15T11:58:36.218Z,19.00
2022-11-15T12:01:29.382Z,19.70
2022-11-15T12:04:05.095Z,18.90
2022-11-15T12:06:54.629Z,18.40
2022-11-15T12:09:40.454Z,17.30
2022-11-15T12:12:36.776Z,17.10
2022-11-15T12:15:18.018Z,17.30
2022-11-15T12:20:17.351Z,17.00
2022-11-15T12:23:11.869Z,18.50
2022-11-15T12:25:51.544Z,17.20
2022-11-15T12:29:05.932Z,18.00
2022-11-15T12:31:35.797Z,18.00
2022-11-15T12:34:36.118Z,17.80
2022-11-15T12:37:34.164Z,18.40
2022-11-15T12:40:04.660Z,16.90
2022-11-15T12:42:36.420Z,19.10
2022-11-15T12:47:51.545Z,18.20
2022-11-15T12:50:54.092Z,18.80
2022-11-15T12:53:24.417Z,17.80
2022-11-15T12:56:07.205Z,19.80
2022-11-15T12:58:43.792Z,18.20
2022-11-15T13:01:11.639Z,15.40
2022-11-15T13:04:17.908Z,18.70
2022-11-15T13:06:46.775Z,19.20
2022-11-15T13:09:32.768Z,17.00
2022-11-15T13:12:28.117Z,16.70
2022-11-15T13:14:57.971Z,15.80
2022-11-15T13:17:27.380Z,17.00
2022-11-15T13:19:59.819Z,16.40
2022-11-15T13:22:28.901Z,18.40
2022-11-15T13:24:57.395Z,19.10
2022-11-15T13:27:25.888Z,16.90
2022-11-15T13:29:54.286Z,17.10
2022-11-15T13:32:22.531Z,17.80
2022-11-15T13:34:52.705Z,17.80
2022-11-15T13:37:20.630Z,15.60
2022-11-15T13:39:49.769Z,15.80
2022-11-15T13:42:20.206Z,15.70
2022-11-15T13:45:00.279Z,16.70
2022-11-15T13:47:29.844Z,15.70
2022-11-15T13:50:00.959Z,15.10
2022-11-15T13:52:34.370Z,21.10
2022-11-15T13:55:11.951Z,16.60
2022-11-15T13:58:01.341Z,13.00
2022-11-15T14:00:34.687Z,15.40
2022-11-15T14:03:14.627Z,15.60
2022-11-15T14:05:45.195Z,14.70
2022-11-15T14:08:21.701Z,15.00
2022-11-15T14:10:49.587Z,13.80
2022-11-15T14:13:31.677Z,14.00
2022-11-15T14:16:21.736Z,16.90
2022-11-15T14:18:51.933Z,15.80
2022-11-15T14:21:21.068Z,14.40
2022-11-15T14:23:48.734Z,14.10
2022-11-15T14:26:33.797Z,13.40
2022-11-15T14:29:23.115Z,14.10
2022-11-15T14:31:50.951Z,14.50
2022-11-15T14:34:18.574Z,14.50
2022-11-15T14:36:46.185Z,15.80
2022-11-15T14:39:13.790Z,14.50
2022-11-15T14:41:41.523Z,14.70
2022-11-15T14:44:11.745Z,14.90
2022-11-15T14:46:39.401Z,15.10
2022-11-15T14:49:07.011Z,14.90
2022-11-15T14:51:34.598Z,14.30
2022-11-15T14:54:02.432Z,14.30
2022-11-15T14:56:30.020Z,13.50
2022-11-15T14:59:00.692Z,14.80
2022-11-15T15:01:28.282Z,14.70
2022-11-15T15:03:55.924Z,14.30
2022-11-15T15:06:23.963Z,14.80
2022-11-15T15:08:51.533Z,14.40
2022-11-15T15:11:25.207Z,14.30
2022-11-15T15:13:53.828Z,16.30
2022-11-15T15:16:21.353Z,15.00
2022-11-15T15:18:48.962Z,15.10
2022-11-15T15:21:32.213Z,12.90
2022-11-15T15:24:03.222Z,14.40
2022-11-15T15:26:30.894Z,14.60
2022-11-15T15:28:58.664Z,13.50
2022-11-15T15:31:26.316Z,12.80
2022-11-15T15:33:53.880Z,15.20
2022-11-15T15:36:21.562Z,14.70
2022-11-15T15:38:49.152Z,15.10
2022-11-15T15:41:17.675Z,15.80
2022-11-15T15:43:45.492Z,16.10
2022-11-15T15:46:15.951Z,21.10
2022-11-15T15:48:44.424Z,15.70
2022-11-15T15:51:19.589Z,21.90
2022-11-15T15:53:49.117Z,17.00
2022-11-15T15:56:19.027Z,14.70
2022-11-15T15:58:46.969Z,16.90
2022-11-15T16:01:14.617Z,20.00
2022-11-15T16:03:42.548Z,18.20
2022-11-15T16:06:34.811Z,17.80
2022-11-15T16:09:19.024Z,16.40
2022-11-15T16:11:47.800Z,17.00
2022-11-15T16:14:15.437Z,17.00
2022-11-15T16:16:43.056Z,18.90
2022-11-15T16:19:11.482Z,17.50
2022-11-15T16:21:39.080Z,18.40
2022-11-15T16:24:06.666Z,18.80
2022-11-15T16:26:36.573Z,17.60
2022-11-15T16:29:04.202Z,19.20
2022-11-15T16:31:31.734Z,17.60
2022-11-15T16:33:59.292Z,18.60
2022-11-15T16:36:30.727Z,17.70
2022-11-15T16:41:26.879Z,16.90
2022-11-15T16:43:54.546Z,16.80
2022-11-15T16:46:27.192Z,17.70
2022-11-15T16:48:55.116Z,20.80
2022-11-15T16:51:23.934Z,17.90
2022-11-15T16:53:51.623Z,18.60
2022-11-15T16:56:30.405Z,19.50
2022-11-15T16:58:59.632Z,19.30
2022-11-15T17:01:31.201Z,20.90
2022-11-15T17:03:59.447Z,20.40
2022-11-15T17:06:27.300Z,20.10
2022-11-15T17:08:55.373Z,18.90
2022-11-15T17:11:22.953Z,22.90
2022-11-15T17:13:50.557Z,22.20
2022-11-15T17:16:18.460Z,23.50
2022-11-15T17:18:51.494Z,23.50
2022-11-15T17:21:21.488Z,21.20
2022-11-15T17:23:49.404Z,23.80
2022-11-15T17:26:29.558Z,26.00
2022-11-15T17:28:58.264Z,28.50
2022-11-15T17:31:25.842Z,23.40
2022-11-15T17:33:53.691Z,21.70
2022-11-15T17:36:21.287Z,22.80
2022-11-15T17:38:48.987Z,22.60
2022-11-15T17:41:16.908Z,25.70
2022-11-15T17:43:44.724Z,25.20
2022-11-15T17:46:18.288Z,21.20
2022-11-15T17:48:46.905Z,23.30
2022-11-15T17:51:17.126Z,22.80
2022-11-15T17:53:47.610Z,23.70
2022-11-15T17:56:20.609Z,24.10
2022-11-15T17:58:53.471Z,21.00
2022-11-15T18:01:23.950Z,24.80
2022-11-15T18:03:52.815Z,25.90
2022-11-15T18:06:22.931Z,23.10
2022-11-15T18:08:52.334Z,25.20
2022-11-15T18:11:28.840Z,21.70
2022-11-15T18:13:59.994Z,23.00
2022-11-15T18:16:29.949Z,22.20
2022-11-15T18:19:01.002Z,21.90
2022-11-15T18:21:30.819Z,22.80
2022-11-15T18:24:00.782Z,22.30
2022-11-15T18:26:30.429Z,22.70
2022-11-15T18:29:05.050Z,24.10
2022-11-15T18:31:32.627Z,25.60
2022-11-15T18:34:00.810Z,22.30
2022-11-15T18:36:33.082Z,23.40
2022-11-15T18:39:02.139Z,22.70
2022-11-15T18:41:30.413Z,23.30
2022-11-15T18:44:00.103Z,22.60
2022-11-15T18:46:30.271Z,24.50
2022-11-15T18:48:59.917Z,22.90
2022-11-15T18:51:30.482Z,22.70
2022-11-15T18:54:00.688Z,23.40
2022-11-15T18:56:30.201Z,23.90
2022-11-15T18:58:59.918Z,20.20
2022-11-15T19:01:42.118Z,20.50
2022-11-15T19:04:13.809Z,20.90
2022-11-15T19:06:43.344Z,21.70
2022-11-15T19:09:13.060Z,23.20
2022-11-15T19:11:41.796Z,21.80
2022-11-15T19:14:11.620Z,22.70
2022-11-15T19:16:44.804Z,40.10
2022-11-15T19:19:17.988Z,27.10
2022-11-15T19:21:46.075Z,22.60
2022-11-15T19:24:13.748Z,23.10
2022-11-15T19:26:41.512Z,22.50
2022-11-15T19:29:09.957Z,22.10
2022-11-15T19:31:38.321Z,19.40
2022-11-15T19:34:06.787Z,23.50
2022-11-15T19:36:37.553Z,21.80
2022-11-15T19:39:08.122Z,22.30
2022-11-15T19:41:37.301Z,24.20
2022-11-15T19:44:06.177Z,22.60
2022-11-15T19:46:34.821Z,24.00
2022-11-15T19:49:02.456Z,22.20
2022-11-15T19:51:30.810Z,24.20
2022-11-15T19:54:00.778Z,24.00
2022-11-15T19:56:28.466Z,24.80
2022-11-15T19:58:56.936Z,26.00
2022-11-15T20:01:27.498Z,25.10
2022-11-15T20:03:57.614Z,23.00
2022-11-15T20:06:30.591Z,23.00
2022-11-15T20:08:58.938Z,25.10
2022-11-15T20:11:27.666Z,26.20
2022-11-15T20:13:59.909Z,24.10
2022-11-15T20:16:28.094Z,24.80
2022-11-15T20:18:55.660Z,24.40
2022-11-15T20:21:23.464Z,23.40
2022-11-15T20:23:51.867Z,22.20
2022-11-15T20:26:20.828Z,23.10
2022-11-15T20:28:48.836Z,22.70
2022-11-15T20:31:16.935Z,21.40
2022-11-15T20:33:44.934Z,22.50
2022-11-15T20:36:14.722Z,22.00
2022-11-15T20:38:43.759Z,21.10
2022-11-15T20:41:15.112Z,23.00
2022-11-15T20:43:42.847Z,22.20
2022-11-15T20:46:12.034Z,25.60
2022-11-15T20:48:40.083Z,23.80
2022-11-15T20:51:18.579Z,21.90
2022-11-15T20:53:47.752Z,22.70
2022-11-15T20:56:18.476Z,22.80
2022-11-15T20:58:47.130Z,24.10
2022-11-15T21:01:15.571Z,20.40
2022-11-15T21:06:13.884Z,16.80
2022-11-15T21:08:41.515Z,19.40
2022-11-15T21:11:09.403Z,23.40
2022-11-15T21:13:39.398Z,23.70
2022-11-15T21:16:07.639Z,22.50
2022-11-15T21:18:35.663Z,22.20
2022-11-15T21:21:06.505Z,22.30
2022-11-15T21:23:34.163Z,22.50
2022-11-15T21:26:01.769Z,42.00
2022-11-15T21:28:32.180Z,32.50
2022-11-15T21:31:00.437Z,25.20
2022-11-15T21:33:28.414Z,26.30
2022-11-15T21:35:57.330Z,23.70
2022-11-15T21:38:25.559Z,21.50
2022-11-15T21:40:53.726Z,22.90
2022-11-15T21:43:21.581Z,22.60
2022-11-15T21:46:00.212Z,25.20
2022-11-15T21:48:29.765Z,23.60
2022-11-15T21:51:08.570Z,23.70
2022-11-15T21:53:36.172Z,22.30
2022-11-15T21:56:04.102Z,23.00
2022-11-15T21:58:32.081Z,21.60
2022-11-15T22:01:00.242Z,22.20
2022-11-15T22:03:28.898Z,21.50
2022-11-15T22:05:56.873Z,23.40
2022-11-15T22:08:25.531Z,20.90
2022-11-15T22:10:53.545Z,22.60
2022-11-15T22:13:21.104Z,25.20
2022-11-15T22:15:48.807Z,24.60
2022-11-15T22:18:16.416Z,22.20
2022-11-15T22:20:58.021Z,24.00
2022-11-15T22:23:27.681Z,22.40
2022-11-15T22:25:55.416Z,23.40
2022-11-15T22:28:23.411Z,22.90
2022-11-15T22:30:53.223Z,22.90
2022-11-15T22:33:23.210Z,22.90
2022-11-15T22:35:51.401Z,23.40
2022-11-15T22:38:19.422Z,23.80
2022-11-15T22:40:47.316Z,24.00
2022-11-15T22:43:18.334Z,22.70
2022-11-15T22:45:53.082Z,23.00
2022-11-15T22:48:23.473Z,22.40
2022-11-15T22:50:51.519Z,24.00
2022-11-15T22:53:19.486Z,25.20
2022-11-15T22:55:51.981Z,24.20
2022-11-15T22:58:21.118Z,20.80
2022-11-15T23:00:53.523Z,22.70
2022-11-15T23:03:22.357Z,22.30
2022-11-15T23:05:50.412Z,20.90
2022-11-15T23:08:18.567Z,21.40
2022-11-15T23:10:46.513Z,24.60
2022-11-15T23:13:14.720Z,24.40
2022-11-15T23:15:50.024Z,22.10
2022-11-15T23:18:19.969Z,18.90
2022-11-15T23:20:47.560Z,23.70
2022-11-15T23:23:16.483Z,20.90
2022-11-15T23:25:45.098Z,24.70
2022-11-15T23:28:12.801Z,22.80
2022-11-15T23:30:40.430Z,19.30
2022-11-15T23:33:14.646Z,24.10
2022-11-15T23:35:42.228Z,23.10
2022-11-15T23:38:09.834Z,21.60
2022-11-15T23:40:37.430Z,23.80
2022-11-15T23:43:05.051Z,25.40
2022-11-15T23:45:32.674Z,23.30
2022-11-15T23:48:01.700Z,21.70
2022-11-15T23:50:29.379Z,23.30
2022-11-15T23:52:56.995Z,21.90
2022-11-15T23:55:24.571Z,22.90
2022-11-15T23:57:52.222Z,22.10
